Aérodrome :
LOGIN :

S'inscrire | Disclaimer

   EN    FR    IT 

 










Légende :    VFR   VFR Marginal   IFR   IFR Intensif   IFR Très Intensif
Visi : 
Plafond : 
>= 8 km
>= 3000ft
5 à 8 km
1000 à 3000 ft
1500m à 5 km
500 à 1000 ft
800 à 1500m
200 à 500 ft
< 800m
< 200 ft
Symboles :   Orages  Brouillard  Fortes neiges  Fortes précipitations  Vent > 20 kt
SIGMETs :   Divers  Orages  Givrage  Turbulence  Onde Orograph.  Cendres Volcan.






- Altitude de l'aérodrome : 102 ft
- Code IATA : EXT


EGTE - Exeter

DERNIER METAR :
  • 230150Z 04008KT 5000 -RADZ FEW008 BKN010 08/08 Q0986

METARs EXPIRÉS :
  • 230050Z 05011KT 9000 -RA FEW010 BKN020 08/07 Q0986
  • 222350Z 05010KT 9999 -RA FEW015 SCT030 08/07 Q0987
  • 222320Z 07012KT 9000 RA FEW010 SCT013 08/07 Q0987

TAF TAF EGTE
Valide du 23 à 00h jusqu'au 23 à 04h UTC


222258Z 2300/2304 10009KT 9999 BKN035
TEMPO 2300/2304 3000 RADZ BKN012
PROB40
TEMPO 2300/2304 BKN007



MET'MAP, la Météo Aéronautique d'un coup d'oeil ! - Copyright ORBIFLY Décembre 2007 - Disclaimer

ORBIFLY MET'MAP TEAM :

Programmation & Développement : Alexandra Zaïnal
Conception & Développement : Baudouin d'Aumeries
Co-Programmation & Développement : Marc-Olivier Méhu
Soutien technique & logistique : Manuel Goepfert

Contact : metmap@orbifly.com




SOURCES & CREDITS :

   NOAA